Floresville, Texas
Current Conditions -  °F | °C
As of 7:53 PM on Saturday 20 Dec 2014 (Local Time) from KSSF Reporting Station
Overcast Overcast  
Wind Chill: 54°   Ceiling: 2600
Heat Index: 54°   Visibility: 10mi
Dew Point: 44°   Wind: 5mph
Humidity: 69%   Direction: 70°ENE
Pressure: 30.15"   Gusts: NA
Location:  29.13°N, 98.16°W
Report Text: KSSF 210153Z 07004KT 10SM OVC026 12/07 A3015 RMK AO2 SLP210 T01220067
Loading
Personal Weather Stations






























Interactive Weather Map New forecast layout! Learn more

10-Day Weather Forecast

Advertisements
Track Severe Weather on mobile